createdAt,value
2017-12-23T00:00:30.624Z,0
2017-12-23T00:01:52.503Z,0
2017-12-23T00:03:14.147Z,0
2017-12-23T00:04:36.076Z,0
2017-12-23T00:05:57.685Z,0
2017-12-23T00:07:19.823Z,0
2017-12-23T00:08:41.965Z,0
2017-12-23T00:10:03.345Z,0
2017-12-23T00:11:24.695Z,0
2017-12-23T00:12:46.592Z,0
2017-12-23T00:14:07.704Z,0
2017-12-23T00:15:28.817Z,0
2017-12-23T00:16:51.851Z,0
2017-12-23T00:18:13.503Z,0
2017-12-23T00:19:34.859Z,0
2017-12-23T00:20:56.992Z,0
2017-12-23T00:22:19.136Z,0
2017-12-23T00:23:41.025Z,0
2017-12-23T00:25:02.904Z,0
2017-12-23T00:26:24.514Z,0
2017-12-23T00:27:46.117Z,0
2017-12-23T00:29:08.340Z,0
2017-12-23T00:30:29.676Z,0
2017-12-23T00:31:51.947Z,0
2017-12-23T00:33:14.104Z,0
2017-12-23T00:34:36.291Z,0
2017-12-23T00:35:57.498Z,0
2017-12-23T00:37:19.481Z,0
2017-12-23T00:38:41.440Z,0
2017-12-23T00:40:03.038Z,0
2017-12-23T00:41:24.898Z,0
2017-12-23T00:42:47.032Z,0
2017-12-23T00:44:08.642Z,0
2017-12-23T00:45:30.256Z,0
2017-12-23T00:46:52.379Z,0
2017-12-23T00:48:13.990Z,0
2017-12-23T00:49:35.944Z,0
2017-12-23T00:50:57.073Z,0
2017-12-23T00:52:18.678Z,0
2017-12-23T00:53:40.550Z,0
2017-12-23T00:55:02.169Z,0
2017-12-23T00:56:24.041Z,0
2017-12-23T00:57:45.810Z,0
2017-12-23T00:59:08.102Z,0
2017-12-23T01:00:29.991Z,0
2017-12-23T01:01:51.875Z,0
2017-12-23T01:03:13.741Z,0
2017-12-23T01:04:35.653Z,0
2017-12-23T01:05:57.882Z,0
2017-12-23T01:07:19.575Z,0
2017-12-23T01:08:41.452Z,0
2017-12-23T01:10:03.051Z,0
2017-12-23T01:11:24.969Z,0
2017-12-23T01:12:47.107Z,0
2017-12-23T01:14:08.979Z,0
2017-12-23T01:15:30.657Z,0
2017-12-23T01:16:52.537Z,0
2017-12-23T01:18:13.994Z,0
2017-12-23T01:19:36.110Z,0
2017-12-23T01:20:58.005Z,0
2017-12-23T01:22:19.980Z,0
2017-12-23T01:23:41.633Z,0
2017-12-23T01:25:03.492Z,0
2017-12-23T01:26:25.621Z,0
2017-12-23T01:27:47.270Z,0
2017-12-23T01:29:08.712Z,0
2017-12-23T01:30:30.335Z,0
2017-12-23T01:31:51.943Z,0
2017-12-23T01:33:14.189Z,0
2017-12-23T01:34:35.919Z,0
2017-12-23T01:35:57.803Z,0
2017-12-23T01:37:20.085Z,0
2017-12-23T01:38:41.700Z,0
2017-12-23T01:40:03.296Z,0
2017-12-23T01:41:24.928Z,0
2017-12-23T01:42:46.853Z,0
2017-12-23T01:44:08.738Z,0
2017-12-23T01:45:30.416Z,0
2017-12-23T01:46:52.268Z,0
2017-12-23T01:48:13.892Z,0
2017-12-23T01:49:35.799Z,0
2017-12-23T01:50:57.215Z,0
2017-12-23T01:52:19.185Z,0
2017-12-23T01:53:41.086Z,0
2017-12-23T01:55:02.967Z,0
2017-12-23T01:56:24.820Z,0
2017-12-23T01:57:46.691Z,0
2017-12-23T01:59:08.543Z,0
2017-12-23T02:00:29.883Z,0
2017-12-23T02:01:51.757Z,0
2017-12-23T02:03:13.370Z,0
2017-12-23T02:04:35.372Z,0
2017-12-23T02:05:57.099Z,0
2017-12-23T02:07:18.484Z,0
2017-12-23T02:08:40.679Z,0
2017-12-23T02:10:02.369Z,0
2017-12-23T02:11:24.225Z,0
2017-12-23T02:12:45.818Z,0
2017-12-23T02:14:07.777Z,0
2017-12-23T02:15:29.655Z,0
2017-12-23T02:16:51.251Z,0
2017-12-23T02:18:13.056Z,0
2017-12-23T02:19:34.404Z,0
2017-12-23T02:20:56.290Z,0
2017-12-23T02:22:17.892Z,0
2017-12-23T02:23:39.756Z,0
2017-12-23T02:25:01.886Z,0
2017-12-23T02:26:23.726Z,0
2017-12-23T02:27:45.616Z,0
2017-12-23T02:29:07.228Z,0
2017-12-23T02:30:28.810Z,0
2017-12-23T02:31:49.892Z,0
2017-12-23T02:33:11.784Z,0
2017-12-23T02:34:33.165Z,0
2017-12-23T02:35:55.078Z,0
2017-12-23T02:37:17.407Z,0
2017-12-23T02:38:39.169Z,0
2017-12-23T02:40:00.878Z,0
2017-12-23T02:41:22.785Z,0
2017-12-23T02:42:44.647Z,0
2017-12-23T02:44:06.633Z,0
2017-12-23T02:45:28.223Z,0
2017-12-23T02:46:50.341Z,0
2017-12-23T02:48:12.234Z,0
2017-12-23T02:49:33.372Z,0
2017-12-23T02:50:55.044Z,0
2017-12-23T02:52:17.220Z,0
2017-12-23T02:53:38.908Z,0
2017-12-23T02:55:01.067Z,0
2017-12-23T02:56:22.678Z,0
2017-12-23T02:57:45.229Z,0
2017-12-23T02:59:07.247Z,0
2017-12-23T03:00:28.350Z,0
2017-12-23T03:01:49.962Z,0
2017-12-23T03:03:12.104Z,0
2017-12-23T03:04:33.807Z,0
2017-12-23T03:05:55.702Z,0
2017-12-23T03:07:17.834Z,0
2017-12-23T03:08:39.801Z,0
2017-12-23T03:10:01.651Z,0
2017-12-23T03:11:23.003Z,0
2017-12-23T03:12:44.876Z,0
2017-12-23T03:14:06.779Z,0
2017-12-23T03:15:28.364Z,0
2017-12-23T03:16:49.963Z,0
2017-12-23T03:18:11.876Z,0
2017-12-23T03:19:33.966Z,0
2017-12-23T03:20:55.803Z,0
2017-12-23T03:22:17.404Z,0
2017-12-23T03:23:39.528Z,0
2017-12-23T03:25:01.143Z,0
2017-12-23T03:26:22.722Z,0
2017-12-23T03:27:44.076Z,0
2017-12-23T03:29:05.691Z,0
2017-12-23T03:30:27.341Z,0
2017-12-23T03:31:48.956Z,0
2017-12-23T03:33:10.903Z,0
2017-12-23T03:34:32.768Z,0
2017-12-23T03:35:54.616Z,0
2017-12-23T03:37:16.307Z,0
2017-12-23T03:38:37.763Z,0
2017-12-23T03:39:59.463Z,0
2017-12-23T03:41:21.610Z,0
2017-12-23T03:42:43.455Z,0
2017-12-23T03:44:05.306Z,0
2017-12-23T03:45:27.112Z,0
2017-12-23T03:46:48.700Z,0
2017-12-23T03:48:09.773Z,0
2017-12-23T03:49:31.376Z,0
2017-12-23T03:50:53.269Z,0
2017-12-23T03:52:14.959Z,0
2017-12-23T03:53:36.592Z,0
2017-12-23T03:54:57.931Z,0
2017-12-23T03:56:19.904Z,0
2017-12-23T03:57:41.589Z,0
2017-12-23T03:59:03.708Z,0
2017-12-23T04:00:25.808Z,0
2017-12-23T04:01:47.426Z,0
2017-12-23T04:03:09.482Z,0
2017-12-23T04:04:31.618Z,0
2017-12-23T04:05:53.201Z,0
2017-12-23T04:07:14.900Z,0
2017-12-23T04:08:36.502Z,0
2017-12-23T04:09:58.607Z,0
2017-12-23T04:11:20.235Z,0
2017-12-23T04:12:41.825Z,0
2017-12-23T04:14:03.204Z,0
2017-12-23T04:15:24.379Z,0
2017-12-23T04:16:46.249Z,0
2017-12-23T04:18:07.717Z,0
2017-12-23T04:19:29.319Z,0
2017-12-23T04:20:50.914Z,0
2017-12-23T04:22:12.006Z,0
2017-12-23T04:23:33.930Z,0
2017-12-23T04:24:55.537Z,0
2017-12-23T04:26:17.414Z,0
2017-12-23T04:27:39.008Z,0
2017-12-23T04:29:00.953Z,0
2017-12-23T04:30:22.615Z,0
2017-12-23T04:31:44.575Z,0
2017-12-23T04:33:06.611Z,0
2017-12-23T04:34:28.868Z,0
2017-12-23T04:35:50.736Z,0
2017-12-23T04:37:12.653Z,0
2017-12-23T04:38:34.290Z,0
2017-12-23T04:39:56.463Z,0
2017-12-23T04:41:18.061Z,0
2017-12-23T04:42:39.381Z,0
2017-12-23T04:44:01.021Z,0
2017-12-23T04:45:22.627Z,0
2017-12-23T04:46:44.594Z,0
2017-12-23T04:48:06.500Z,0
2017-12-23T04:49:28.137Z,0
2017-12-23T04:50:50.349Z,0
2017-12-23T04:52:12.220Z,0
2017-12-23T04:53:34.088Z,0
2017-12-23T04:54:56.219Z,0
2017-12-23T04:56:18.076Z,0
2017-12-23T04:57:39.935Z,0
2017-12-23T04:59:01.075Z,0
2017-12-23T05:00:22.773Z,0
2017-12-23T05:01:44.254Z,0
2017-12-23T05:03:05.320Z,0
2017-12-23T05:04:26.666Z,0
2017-12-23T05:05:48.263Z,0
2017-12-23T05:07:09.841Z,0
2017-12-23T05:08:31.701Z,0
2017-12-23T05:09:53.737Z,0
2017-12-23T05:11:15.658Z,0
2017-12-23T05:12:37.754Z,0
2017-12-23T05:13:59.635Z,0
2017-12-23T05:15:21.501Z,0
2017-12-23T05:16:43.401Z,0
2017-12-23T05:18:05.514Z,0
2017-12-23T05:19:27.139Z,0
2017-12-23T05:20:48.997Z,0
2017-12-23T05:22:10.923Z,0
2017-12-23T05:23:32.788Z,0
2017-12-23T05:24:54.658Z,0
2017-12-23T05:26:16.270Z,0
2017-12-23T05:27:37.870Z,0
2017-12-23T05:28:59.566Z,0
2017-12-23T05:30:21.209Z,0
2017-12-23T05:31:42.865Z,0
2017-12-23T05:33:04.728Z,0
2017-12-23T05:34:26.315Z,0
2017-12-23T05:35:48.425Z,0
2017-12-23T05:37:10.273Z,0
2017-12-23T05:38:31.606Z,0
2017-12-23T05:39:52.952Z,0
2017-12-23T05:41:15.065Z,0
2017-12-23T05:42:36.932Z,0
2017-12-23T05:43:58.627Z,0
2017-12-23T05:45:20.233Z,0
2017-12-23T05:46:42.105Z,0
2017-12-23T05:48:04.046Z,0
2017-12-23T05:49:25.213Z,0
2017-12-23T05:50:47.107Z,0
2017-12-23T05:52:09.465Z,0
2017-12-23T05:53:31.324Z,0
2017-12-23T05:54:52.754Z,0
2017-12-23T05:56:14.086Z,0
2017-12-23T05:57:35.984Z,0
2017-12-23T05:58:57.853Z,0
2017-12-23T06:00:19.462Z,0
2017-12-23T06:01:41.746Z,0
2017-12-23T06:03:03.887Z,0
2017-12-23T06:04:25.526Z,0
2017-12-23T06:05:47.126Z,0
2017-12-23T06:07:08.310Z,0
2017-12-23T06:08:30.080Z,0
2017-12-23T06:09:52.255Z,0
2017-12-23T06:11:13.594Z,0
2017-12-23T06:12:35.321Z,0
2017-12-23T06:13:56.901Z,0
2017-12-23T06:15:18.363Z,0
2017-12-23T06:16:39.753Z,0
2017-12-23T06:18:01.351Z,0
2017-12-23T06:19:23.210Z,0
2017-12-23T06:20:45.095Z,0
2017-12-23T06:22:07.054Z,0
2017-12-23T06:23:28.961Z,0
2017-12-23T06:24:50.906Z,0
2017-12-23T06:26:12.854Z,0
2017-12-23T06:27:34.882Z,0
2017-12-23T06:28:56.504Z,0
2017-12-23T06:30:18.384Z,0
2017-12-23T06:31:40.569Z,0
2017-12-23T06:33:02.428Z,0
2017-12-23T06:34:23.762Z,0
2017-12-23T06:35:45.365Z,0
2017-12-23T06:37:07.324Z,0
2017-12-23T06:38:28.937Z,0
2017-12-23T06:39:51.110Z,0
2017-12-23T06:41:12.258Z,0
2017-12-23T06:42:34.155Z,0
2017-12-23T06:43:56.076Z,0
2017-12-23T06:45:18.023Z,0
2017-12-23T06:46:39.988Z,0
2017-12-23T06:48:01.935Z,0
2017-12-23T06:49:23.287Z,0
2017-12-23T06:50:45.173Z,0
2017-12-23T06:52:06.802Z,0
2017-12-23T06:53:28.925Z,0
2017-12-23T06:54:50.527Z,0
2017-12-23T06:56:11.950Z,0
2017-12-23T06:57:33.812Z,0
2017-12-23T06:58:54.883Z,0
2017-12-23T07:00:16.580Z,0
2017-12-23T07:01:38.180Z,0
2017-12-23T07:02:59.518Z,0
2017-12-23T07:04:21.364Z,0
2017-12-23T07:05:43.335Z,0
2017-12-23T07:07:05.217Z,0
2017-12-23T07:08:26.820Z,0
2017-12-23T07:09:49.055Z,0
2017-12-23T07:11:10.729Z,0
2017-12-23T07:12:32.639Z,0
2017-12-23T07:13:54.652Z,0
2017-12-23T07:15:16.552Z,0
2017-12-23T07:16:38.531Z,0
2017-12-23T07:18:00.496Z,0
2017-12-23T07:19:22.253Z,0
2017-12-23T07:20:43.689Z,0
2017-12-23T07:22:05.550Z,0
2017-12-23T07:23:27.414Z,0
2017-12-23T07:24:49.014Z,0
2017-12-23T07:26:11.128Z,0
2017-12-23T07:27:32.975Z,0
2017-12-23T07:28:54.866Z,0
2017-12-23T07:30:16.744Z,0
2017-12-23T07:31:38.856Z,0
2017-12-23T07:33:00.706Z,0
2017-12-23T07:34:22.314Z,0
2017-12-23T07:35:44.521Z,0
2017-12-23T07:37:06.110Z,0
2017-12-23T07:38:27.717Z,0
2017-12-23T07:39:49.322Z,0
2017-12-23T07:41:10.713Z,0
2017-12-23T07:42:32.852Z,0
2017-12-23T07:43:54.727Z,0
2017-12-23T07:45:16.941Z,0
2017-12-23T07:46:38.280Z,0
2017-12-23T07:47:59.892Z,0
2017-12-23T07:49:21.928Z,0
2017-12-23T07:50:43.542Z,0
2017-12-23T07:52:05.413Z,0
2017-12-23T07:53:27.288Z,0
2017-12-23T07:54:48.892Z,0
2017-12-23T07:56:10.765Z,0
2017-12-23T07:57:32.490Z,0
2017-12-23T07:58:54.452Z,0
2017-12-23T08:00:16.710Z,0
2017-12-23T08:01:38.191Z,0
2017-12-23T08:03:00.384Z,0
2017-12-23T08:04:21.977Z,5
2017-12-23T08:05:43.659Z,5
2017-12-23T08:07:05.846Z,5
2017-12-23T08:08:27.818Z,5
2017-12-23T08:09:50.032Z,5
2017-12-23T08:11:11.910Z,5
2017-12-23T08:12:34.139Z,5
2017-12-23T08:13:55.737Z,5
2017-12-23T08:15:17.345Z,5
2017-12-23T08:16:38.970Z,5
2017-12-23T08:18:00.590Z,5
2017-12-23T08:19:22.258Z,5
2017-12-23T08:20:44.150Z,5
2017-12-23T08:22:06.452Z,5
2017-12-23T08:23:27.997Z,5
2017-12-23T08:24:49.869Z,5
2017-12-23T08:26:12.084Z,5
2017-12-23T08:27:34.241Z,5
2017-12-23T08:28:56.463Z,5
2017-12-23T08:30:18.164Z,5
2017-12-23T08:31:40.127Z,5
2017-12-23T08:33:01.231Z,5
2017-12-23T08:34:22.862Z,5
2017-12-23T08:35:45.162Z,5
2017-12-23T08:37:07.045Z,5
2017-12-23T08:38:28.813Z,5
2017-12-23T08:39:50.825Z,5
2017-12-23T08:41:12.762Z,5
2017-12-23T08:42:34.137Z,5
2017-12-23T08:43:55.561Z,5
2017-12-23T08:45:17.449Z,5
2017-12-23T08:46:39.654Z,5
2017-12-23T08:48:01.509Z,5
2017-12-23T08:49:23.696Z,5
2017-12-23T08:50:45.292Z,5
2017-12-23T08:52:07.011Z,5
2017-12-23T08:53:28.633Z,5
2017-12-23T08:54:50.775Z,5
2017-12-23T08:56:13.022Z,10
2017-12-23T08:57:35.444Z,5
2017-12-23T08:58:57.404Z,10
2017-12-23T09:00:19.326Z,5
2017-12-23T09:01:40.992Z,10
2017-12-23T09:03:32.174Z,10
2017-12-23T09:04:54.293Z,10
2017-12-23T09:06:16.163Z,10
2017-12-23T09:07:37.757Z,10
2017-12-23T09:08:59.944Z,10
2017-12-23T09:10:22.094Z,10
2017-12-23T09:11:43.958Z,10
2017-12-23T09:13:06.166Z,10
2017-12-23T09:14:28.055Z,10
2017-12-23T09:15:49.644Z,10
2017-12-23T09:17:11.548Z,10
2017-12-23T09:18:33.565Z,10
2017-12-23T09:19:55.274Z,10
2017-12-23T09:21:17.278Z,10
2017-12-23T09:22:39.564Z,10
2017-12-23T09:24:01.583Z,10
2017-12-23T09:25:23.819Z,10
2017-12-23T09:26:45.534Z,10
2017-12-23T09:28:06.924Z,10
2017-12-23T09:29:29.114Z,10
2017-12-23T09:30:51.095Z,10
2017-12-23T09:32:13.354Z,10
2017-12-23T09:33:35.311Z,10
2017-12-23T09:34:56.963Z,10
2017-12-23T09:36:19.096Z,10
2017-12-23T09:37:41.136Z,10
2017-12-23T09:39:03.264Z,10
2017-12-23T09:40:25.191Z,10
2017-12-23T09:41:47.543Z,10
2017-12-23T09:43:09.198Z,10
2017-12-23T09:44:30.825Z,10
2017-12-23T09:45:52.700Z,15
2017-12-23T09:47:15.044Z,15
2017-12-23T09:48:36.938Z,20
2017-12-23T09:49:59.066Z,15
2017-12-23T09:51:21.270Z,15
2017-12-23T09:52:43.370Z,15
2017-12-23T09:54:05.244Z,15
2017-12-23T09:55:26.869Z,20
2017-12-23T09:56:49.131Z,25
2017-12-23T09:58:11.182Z,25
2017-12-23T09:59:33.085Z,25
2017-12-23T10:00:55.212Z,25
2017-12-23T10:02:17.359Z,30
2017-12-23T10:03:39.509Z,35
2017-12-23T10:05:01.112Z,35
2017-12-23T10:06:23.001Z,40
2017-12-23T10:07:44.365Z,40
2017-12-23T10:09:06.026Z,45
2017-12-23T10:10:27.913Z,40
2017-12-23T10:11:49.607Z,40
2017-12-23T10:13:11.882Z,45
2017-12-23T10:14:34.095Z,40
2017-12-23T10:15:56.119Z,40
2017-12-23T10:17:17.784Z,45
2017-12-23T10:18:39.936Z,35
2017-12-23T10:20:02.133Z,35
2017-12-23T10:21:23.760Z,30
2017-12-23T10:22:45.639Z,30
2017-12-23T10:24:07.760Z,30
2017-12-23T10:25:30.037Z,40
2017-12-23T10:26:51.955Z,45
2017-12-23T10:28:13.818Z,45
2017-12-23T10:29:35.442Z,50
2017-12-23T10:30:57.658Z,50
2017-12-23T10:32:19.560Z,50
2017-12-23T10:33:41.451Z,55
2017-12-23T10:35:03.579Z,45
2017-12-23T10:36:25.784Z,45
2017-12-23T10:37:47.407Z,45
2017-12-23T10:39:09.588Z,45
2017-12-23T10:40:31.705Z,50
2017-12-23T10:41:53.616Z,45
2017-12-23T10:43:15.543Z,55
2017-12-23T10:44:37.519Z,45
2017-12-23T10:45:59.475Z,40
2017-12-23T10:47:22.006Z,40
2017-12-23T10:48:43.868Z,45
2017-12-23T10:50:06.010Z,40
2017-12-23T10:51:27.229Z,50
2017-12-23T10:52:50.099Z,50
2017-12-23T10:54:12.058Z,55
2017-12-23T10:55:34.386Z,55
2017-12-23T10:56:56.524Z,60
2017-12-23T10:58:18.690Z,70
2017-12-23T10:59:40.969Z,65
2017-12-23T11:01:03.130Z,75
2017-12-23T11:02:25.122Z,80
2017-12-23T11:03:47.704Z,80
2017-12-23T11:05:09.052Z,80
2017-12-23T11:06:31.202Z,80
2017-12-23T11:07:53.154Z,70
2017-12-23T11:09:15.653Z,60
2017-12-23T11:10:37.558Z,55
2017-12-23T11:11:59.188Z,50
2017-12-23T11:13:21.336Z,40
2017-12-23T11:14:42.949Z,35
2017-12-23T11:16:05.097Z,40
2017-12-23T11:17:27.122Z,40
2017-12-23T11:18:49.026Z,50
2017-12-23T11:20:10.632Z,50
2017-12-23T11:21:32.278Z,55
2017-12-23T11:22:54.203Z,55
2017-12-23T11:24:16.122Z,70
2017-12-23T11:25:38.335Z,75
2017-12-23T11:27:00.247Z,80
2017-12-23T11:28:22.140Z,50
2017-12-23T11:29:44.023Z,55
2017-12-23T11:31:06.159Z,60
2017-12-23T11:32:28.024Z,50
2017-12-23T11:33:50.211Z,55
2017-12-23T11:35:12.427Z,50
2017-12-23T11:36:34.292Z,45
2017-12-23T11:37:56.265Z,40
2017-12-23T11:39:18.443Z,45
2017-12-23T11:40:40.814Z,35
2017-12-23T11:42:02.664Z,35
2017-12-23T11:43:24.044Z,30
2017-12-23T11:44:45.956Z,25
2017-12-23T11:46:08.269Z,30
2017-12-23T11:47:30.097Z,35
2017-12-23T11:48:52.105Z,45
2017-12-23T11:50:13.963Z,55
2017-12-23T11:51:36.182Z,55
2017-12-23T11:52:58.325Z,60
2017-12-23T11:54:20.227Z,55
2017-12-23T11:55:42.417Z,55
2017-12-23T11:57:04.436Z,60
2017-12-23T11:58:26.486Z,60
2017-12-23T11:59:48.369Z,55
2017-12-23T12:01:10.314Z,50
2017-12-23T12:02:32.501Z,50
2017-12-23T12:03:54.898Z,40
2017-12-23T12:05:17.255Z,40
2017-12-23T12:06:39.155Z,50
2017-12-23T12:08:01.032Z,50
2017-12-23T12:09:22.902Z,45
2017-12-23T12:10:45.070Z,40
2017-12-23T12:12:06.956Z,50
2017-12-23T12:13:28.838Z,45
2017-12-23T12:14:50.993Z,45
2017-12-23T12:16:12.381Z,50
2017-12-23T12:17:34.608Z,50
2017-12-23T12:18:56.245Z,50
2017-12-23T12:20:18.689Z,45
2017-12-23T12:21:40.580Z,45
2017-12-23T12:23:02.851Z,45
2017-12-23T12:24:25.037Z,45
2017-12-23T12:25:47.257Z,40
2017-12-23T12:27:09.440Z,40
2017-12-23T12:28:31.525Z,40
2017-12-23T12:29:53.432Z,40
2017-12-23T12:31:15.355Z,35
2017-12-23T12:32:36.776Z,35
2017-12-23T12:33:58.414Z,35
2017-12-23T12:35:20.340Z,35
2017-12-23T12:36:42.543Z,40
2017-12-23T12:38:04.730Z,35
2017-12-23T12:39:26.897Z,40
2017-12-23T12:40:48.801Z,45
2017-12-23T12:42:10.733Z,40
2017-12-23T12:43:32.968Z,45
2017-12-23T12:44:54.863Z,50
2017-12-23T12:46:15.962Z,45
2017-12-23T12:47:38.265Z,45
2017-12-23T12:49:00.615Z,45
2017-12-23T12:50:22.771Z,40
2017-12-23T12:51:44.929Z,40
2017-12-23T12:53:07.208Z,45
2017-12-23T12:54:28.837Z,40
2017-12-23T12:55:51.057Z,40
2017-12-23T12:57:12.943Z,45
2017-12-23T12:58:35.194Z,50
2017-12-23T12:59:56.890Z,35
2017-12-23T13:01:19.125Z,35
2017-12-23T13:02:41.159Z,35
2017-12-23T13:04:02.926Z,35
2017-12-23T13:05:24.539Z,30
2017-12-23T13:06:46.773Z,30
2017-12-23T13:08:08.417Z,30
2017-12-23T13:09:30.655Z,25
2017-12-23T13:11:24.913Z,25
2017-12-23T13:12:46.935Z,25
2017-12-23T13:14:09.075Z,30
2017-12-23T13:15:31.269Z,30
2017-12-23T13:16:53.454Z,35
2017-12-23T13:18:15.075Z,30
2017-12-23T13:19:37.014Z,30
2017-12-23T13:20:58.994Z,30
2017-12-23T13:22:21.234Z,30
2017-12-23T13:23:43.234Z,25
2017-12-23T13:25:05.504Z,30
2017-12-23T13:26:27.651Z,30
2017-12-23T13:27:49.271Z,30
2017-12-23T13:29:11.164Z,25
2017-12-23T13:30:32.822Z,25
2017-12-23T13:31:54.998Z,25
2017-12-23T13:33:17.201Z,25
2017-12-23T13:34:39.356Z,25
2017-12-23T13:36:01.524Z,20
2017-12-23T13:37:38.328Z,20
2017-12-23T13:39:00.224Z,25
2017-12-23T13:40:22.402Z,20
2017-12-23T13:41:44.283Z,20
2017-12-23T13:43:06.654Z,20
2017-12-23T13:44:28.287Z,20
2017-12-23T13:45:49.919Z,25
2017-12-23T13:47:11.533Z,20
2017-12-23T13:48:33.464Z,25
2017-12-23T13:49:55.346Z,20
2017-12-23T13:51:17.505Z,20
2017-12-23T13:52:39.398Z,20
2017-12-23T13:54:01.316Z,15
2017-12-23T13:55:23.133Z,15
2017-12-23T13:56:45.295Z,15
2017-12-23T13:58:07.466Z,20
2017-12-23T13:59:28.566Z,20
2017-12-23T14:00:50.478Z,15
2017-12-23T14:02:12.469Z,15
2017-12-23T14:03:34.430Z,15
2017-12-23T14:04:56.374Z,10
2017-12-23T14:06:18.254Z,10
2017-12-23T14:07:40.124Z,15
2017-12-23T14:09:02.344Z,10
2017-12-23T14:10:24.545Z,10
2017-12-23T14:11:46.204Z,10
2017-12-23T14:13:08.090Z,10
2017-12-23T14:14:29.680Z,10
2017-12-23T14:15:51.291Z,10
2017-12-23T14:17:13.430Z,10
2017-12-23T14:18:35.713Z,10
2017-12-23T14:19:57.628Z,15
2017-12-23T14:21:19.756Z,15
2017-12-23T14:22:41.686Z,10
2017-12-23T14:24:03.395Z,10
2017-12-23T14:25:25.552Z,10
2017-12-23T14:26:46.924Z,10
2017-12-23T14:28:09.864Z,10
2017-12-23T14:30:03.795Z,10
2017-12-23T14:31:26.419Z,10
2017-12-23T14:32:48.348Z,10
2017-12-23T14:34:10.383Z,5
2017-12-23T14:35:32.235Z,10
2017-12-23T14:36:54.046Z,5
2017-12-23T14:38:16.333Z,10
2017-12-23T14:39:38.322Z,5
2017-12-23T14:41:00.453Z,5
2017-12-23T14:42:22.074Z,5
2017-12-23T14:43:43.963Z,5
2017-12-23T14:45:06.130Z,5
2017-12-23T14:46:27.779Z,5
2017-12-23T14:47:50.064Z,5
2017-12-23T14:49:12.278Z,5
2017-12-23T14:50:34.414Z,5
2017-12-23T14:51:56.394Z,5
2017-12-23T14:53:18.389Z,5
2017-12-23T14:54:40.645Z,5
2017-12-23T14:56:02.784Z,0
2017-12-23T14:57:25.075Z,0
2017-12-23T14:58:47.316Z,0
2017-12-23T15:00:09.365Z,0
2017-12-23T15:01:31.266Z,0
2017-12-23T15:02:53.159Z,0
2017-12-23T15:04:14.491Z,0
2017-12-23T15:05:36.409Z,0
2017-12-23T15:06:58.777Z,0
2017-12-23T15:08:21.063Z,0
2017-12-23T15:09:43.348Z,0
2017-12-23T15:11:05.221Z,0
2017-12-23T15:12:26.863Z,0
2017-12-23T15:13:48.586Z,0
2017-12-23T15:15:10.829Z,0
2017-12-23T15:16:32.725Z,0
2017-12-23T15:17:54.892Z,0
2017-12-23T15:19:17.155Z,0
2017-12-23T15:20:39.335Z,0
2017-12-23T15:22:01.322Z,0
2017-12-23T15:23:23.477Z,0
2017-12-23T15:24:44.852Z,0
2017-12-23T15:26:06.752Z,0
2017-12-23T15:27:28.934Z,0
2017-12-23T15:28:51.088Z,0
2017-12-23T15:30:13.240Z,0
2017-12-23T15:31:34.416Z,0
2017-12-23T15:32:56.589Z,0
2017-12-23T15:34:18.467Z,0
2017-12-23T15:35:40.611Z,0
2017-12-23T15:37:02.784Z,0
2017-12-23T15:38:24.412Z,0
2017-12-23T15:39:46.639Z,0
2017-12-23T15:41:08.858Z,0
2017-12-23T15:42:30.538Z,0
2017-12-23T15:43:52.702Z,0
2017-12-23T15:45:14.345Z,0
2017-12-23T15:46:36.480Z,0
2017-12-23T15:47:58.434Z,0
2017-12-23T15:49:20.455Z,0
2017-12-23T15:50:42.413Z,0
2017-12-23T15:52:04.282Z,0
2017-12-23T15:53:26.505Z,0
2017-12-23T15:54:48.455Z,0
2017-12-23T15:56:10.599Z,0
2017-12-23T15:57:32.504Z,0
2017-12-23T15:58:54.727Z,0
2017-12-23T16:00:16.898Z,0
2017-12-23T16:01:38.895Z,0
2017-12-23T16:03:00.795Z,0
2017-12-23T16:04:22.708Z,0
2017-12-23T16:05:44.763Z,0
2017-12-23T16:07:06.655Z,0
2017-12-23T16:08:28.283Z,0
2017-12-23T16:09:50.533Z,0
2017-12-23T16:11:12.136Z,0
2017-12-23T16:12:33.740Z,0
2017-12-23T16:13:55.627Z,0
2017-12-23T16:15:18.124Z,0
2017-12-23T16:16:40.294Z,0
2017-12-23T16:18:02.452Z,0
2017-12-23T16:19:24.576Z,0
2017-12-23T16:20:46.354Z,0
2017-12-23T16:22:08.498Z,0
2017-12-23T16:23:30.106Z,0
2017-12-23T16:24:51.993Z,0
2017-12-23T16:26:13.535Z,0
2017-12-23T16:27:35.225Z,0
2017-12-23T16:28:57.097Z,0
2017-12-23T16:30:19.264Z,0
2017-12-23T16:31:41.772Z,0
2017-12-23T16:33:03.387Z,0
2017-12-23T16:34:25.604Z,0
2017-12-23T16:35:47.748Z,0
2017-12-23T16:37:09.686Z,0
2017-12-23T16:38:31.942Z,0
2017-12-23T16:39:53.898Z,0
2017-12-23T16:41:16.191Z,0
2017-12-23T16:42:39.666Z,0
2017-12-23T16:44:01.536Z,0
2017-12-23T16:45:23.419Z,0
2017-12-23T16:46:45.566Z,0
2017-12-23T16:48:07.728Z,0
2017-12-23T16:49:29.619Z,0
2017-12-23T16:50:51.369Z,0
2017-12-23T16:52:13.293Z,0
2017-12-23T16:53:35.359Z,0
2017-12-23T16:54:57.349Z,0
2017-12-23T16:56:19.485Z,0
2017-12-23T16:57:41.484Z,0
2017-12-23T16:59:03.145Z,0
2017-12-23T17:00:25.294Z,0
2017-12-23T17:01:47.467Z,0
2017-12-23T17:03:09.368Z,0
2017-12-23T17:04:31.530Z,0
2017-12-23T17:05:53.724Z,0
2017-12-23T17:07:15.945Z,0
2017-12-23T17:08:37.901Z,0
2017-12-23T17:09:59.917Z,0
2017-12-23T17:11:21.533Z,0
2017-12-23T17:12:43.473Z,0
2017-12-23T17:14:05.124Z,0
2017-12-23T17:15:27.024Z,0
2017-12-23T17:16:49.259Z,0
2017-12-23T17:18:11.261Z,0
2017-12-23T17:19:33.434Z,0
2017-12-23T17:20:55.723Z,0
2017-12-23T17:22:17.626Z,0
2017-12-23T17:23:39.844Z,0
2017-12-23T17:25:01.475Z,0
2017-12-23T17:26:23.393Z,0
2017-12-23T17:27:45.596Z,0
2017-12-23T17:29:07.214Z,0
2017-12-23T17:30:29.374Z,0
2017-12-23T17:31:51.844Z,0
2017-12-23T17:33:13.513Z,0
2017-12-23T17:34:35.304Z,0
2017-12-23T17:35:57.446Z,0
2017-12-23T17:37:19.873Z,0
2017-12-23T17:38:41.601Z,0
2017-12-23T17:40:02.975Z,0
2017-12-23T17:41:25.145Z,0
2017-12-23T17:42:47.264Z,0
2017-12-23T17:44:09.419Z,0
2017-12-23T17:45:31.311Z,0
2017-12-23T17:46:53.494Z,0
2017-12-23T17:48:15.374Z,0
2017-12-23T17:49:37.058Z,0
2017-12-23T17:50:58.681Z,0
2017-12-23T17:52:21.099Z,0
2017-12-23T17:53:43.118Z,0
2017-12-23T17:55:05.289Z,0
2017-12-23T17:56:27.152Z,0
2017-12-23T17:57:49.302Z,0
2017-12-23T17:59:11.950Z,0
2017-12-23T18:00:33.576Z,0
2017-12-23T18:01:55.761Z,0
2017-12-23T18:03:17.645Z,0
2017-12-23T18:04:39.281Z,0
2017-12-23T18:06:01.484Z,0
2017-12-23T18:07:23.086Z,0
2017-12-23T18:08:44.953Z,0
2017-12-23T18:10:06.856Z,0
2017-12-23T18:11:28.738Z,0
2017-12-23T18:12:51.042Z,0
2017-12-23T18:14:12.976Z,0
2017-12-23T18:15:34.427Z,0
2017-12-23T18:16:56.355Z,0
2017-12-23T18:18:18.644Z,0
2017-12-23T18:19:40.597Z,0
2017-12-23T18:21:02.841Z,0
2017-12-23T18:22:24.312Z,0
2017-12-23T18:23:46.205Z,0
2017-12-23T18:25:08.108Z,0
2017-12-23T18:26:29.712Z,0
2017-12-23T18:27:51.867Z,0
2017-12-23T18:29:13.484Z,0
2017-12-23T18:30:35.545Z,0
2017-12-23T18:31:57.503Z,0
2017-12-23T18:33:19.743Z,0
2017-12-23T18:34:42.000Z,0
2017-12-23T18:36:03.926Z,0
2017-12-23T18:37:25.864Z,0
2017-12-23T18:38:47.947Z,0
2017-12-23T18:40:09.575Z,0
2017-12-23T18:41:31.499Z,0
2017-12-23T18:42:53.666Z,0
2017-12-23T18:44:15.852Z,0
2017-12-23T18:45:38.220Z,0
2017-12-23T18:47:00.406Z,0
2017-12-23T18:48:22.551Z,0
2017-12-23T18:49:44.481Z,0
2017-12-23T18:51:06.648Z,0
2017-12-23T18:52:28.867Z,0
2017-12-23T18:53:51.082Z,0
2017-12-23T18:55:12.759Z,0
2017-12-23T18:56:34.477Z,0
2017-12-23T18:57:56.359Z,0
2017-12-23T18:59:18.557Z,0
2017-12-23T19:00:40.447Z,0
2017-12-23T19:02:02.372Z,0
2017-12-23T19:03:24.296Z,0
2017-12-23T19:04:46.587Z,0
2017-12-23T19:06:08.560Z,0
2017-12-23T19:07:30.254Z,0
2017-12-23T19:08:52.146Z,0
2017-12-23T19:10:14.309Z,0
2017-12-23T19:11:36.453Z,0
2017-12-23T19:12:58.628Z,0
2017-12-23T19:14:20.504Z,0
2017-12-23T19:15:42.701Z,0
2017-12-23T19:17:04.963Z,0
2017-12-23T19:18:26.854Z,0
2017-12-23T19:19:49.001Z,0
2017-12-23T19:21:10.902Z,0
2017-12-23T19:22:33.056Z,0
2017-12-23T19:23:54.940Z,0
2017-12-23T19:25:16.893Z,0
2017-12-23T19:26:38.786Z,0
2017-12-23T19:28:00.718Z,0
2017-12-23T19:29:22.974Z,0
2017-12-23T19:30:44.993Z,0
2017-12-23T19:32:07.166Z,0
2017-12-23T19:33:29.372Z,0
2017-12-23T19:34:50.994Z,0
2017-12-23T19:36:12.659Z,0
2017-12-23T19:37:34.814Z,0
2017-12-23T19:38:56.970Z,0
2017-12-23T19:40:19.117Z,0
2017-12-23T19:41:41.368Z,0
2017-12-23T19:43:03.270Z,0
2017-12-23T19:44:25.227Z,0
2017-12-23T19:45:47.437Z,0
2017-12-23T19:47:09.603Z,0
2017-12-23T19:48:31.870Z,0
2017-12-23T19:49:54.047Z,0
2017-12-23T19:51:16.023Z,0
2017-12-23T19:52:38.323Z,0
2017-12-23T19:54:00.484Z,0
2017-12-23T19:55:22.468Z,0
2017-12-23T19:56:44.376Z,0
2017-12-23T19:58:06.572Z,0
2017-12-23T19:59:28.529Z,0
2017-12-23T20:00:51.016Z,0